Time;durP1;ratioP1;P1;durP2;ratioP2;P2;SDS_P1;SDS_P2;PMS_P1;PMS_P2;Temp;Humidity;BMP_temperature;BMP_pressure;BME280_temperature;BME280_humidity;BME280_pressure;Samples;Min_cycle;Max_cycle;Signal;HPM_P1;HPM_P2
2023/12/22 00:01:15;;;;;;;17.20;9.20;;;;;;;-145.63;100.00;61273.97;5061439;28;20040;-62
2023/12/22 00:03:42;;;;;;;11.77;9.05;;;;;;;-145.63;100.00;61273.97;5079309;28;20087;-61
2023/12/22 00:06:08;;;;;;;13.15;9.77;;;;;;;-145.63;100.00;61273.97;5069867;28;20025;-61
2023/12/22 00:08:33;;;;;;;10.68;9.02;;;;;;;-145.63;100.00;61273.97;5062254;28;20025;-60
2023/12/22 00:10:59;;;;;;;11.80;9.65;;;;;;;-145.63;100.00;61273.97;5059187;28;20040;-60
2023/12/22 00:13:25;;;;;;;12.73;9.50;;;;;;;-145.63;100.00;61273.97;5042594;28;20032;-60
2023/12/22 00:15:51;;;;;;;19.80;9.60;;;;;;;-145.63;100.00;61273.97;5060620;28;20033;-61
2023/12/22 00:18:16;;;;;;;11.93;9.60;;;;;;;-145.63;100.00;61273.97;5062388;28;20100;-61
2023/12/22 00:20:42;;;;;;;12.60;9.65;;;;;;;-145.63;100.00;61273.97;5053128;28;20028;-60
2023/12/22 00:23:08;;;;;;;12.93;9.95;;;;;;;-145.63;100.00;61273.97;5046191;28;20031;-62
2023/12/22 00:25:33;;;;;;;13.57;10.30;;;;;;;-145.63;100.00;61273.97;5062244;28;20051;-61
2023/12/22 00:27:59;;;;;;;14.10;9.63;;;;;;;-145.63;100.00;61273.97;5061579;28;20033;-61
2023/12/22 00:30:25;;;;;;;15.18;10.10;;;;;;;-145.63;100.00;61273.97;5062031;28;20033;-61
2023/12/22 00:32:50;;;;;;;12.70;9.50;;;;;;;-145.63;100.00;61273.97;5061862;28;20048;-61
2023/12/22 00:35:16;;;;;;;13.18;9.25;;;;;;;-145.63;100.00;61273.97;5056905;28;20068;-62
2023/12/22 00:37:42;;;;;;;12.32;8.70;;;;;;;-145.63;100.00;61273.97;5059325;28;20036;-62
2023/12/22 00:40:09;;;;;;;12.52;8.55;;;;;;;-145.63;100.00;61273.97;5062132;28;20060;-62
2023/12/22 00:42:35;;;;;;;10.85;8.82;;;;;;;-145.63;100.00;61273.97;5046061;28;20325;-62
2023/12/22 00:45:01;;;;;;;12.57;8.88;;;;;;;-145.63;100.00;61273.97;5052891;28;20033;-61
2023/12/22 00:47:29;;;;;;;12.82;8.90;;;;;;;-145.63;100.00;61273.97;5055266;28;20071;-61
2023/12/22 00:49:55;;;;;;;10.77;8.15;;;;;;;-145.63;100.00;61273.97;5042744;28;20244;-61
2023/12/22 00:52:20;;;;;;;10.88;8.98;;;;;;;-145.63;100.00;61273.97;5042264;28;20037;-61
2023/12/22 00:54:47;;;;;;;10.93;8.20;;;;;;;-145.63;100.00;61273.97;5059085;28;20079;-61
2023/12/22 00:57:13;;;;;;;11.10;8.25;;;;;;;-145.63;100.00;61273.97;5049316;28;20029;-61
2023/12/22 00:59:45;;;;;;;12.05;8.73;;;;;;;-145.63;100.00;61273.97;5053280;28;20033;-61
2023/12/22 01:02:10;;;;;;;11.70;8.30;;;;;;;-145.63;100.00;61273.97;5065428;28;20037;-62
2023/12/22 01:04:36;;;;;;;11.73;8.32;;;;;;;-145.63;100.00;61273.97;5065460;28;20235;-62
2023/12/22 01:07:02;;;;;;;10.10;8.40;;;;;;;-145.63;100.00;61273.97;5051831;28;20084;-62
2023/12/22 01:09:27;;;;;;;9.90;7.97;;;;;;;-145.63;100.00;61273.97;5050683;28;20036;-61
2023/12/22 01:11:53;;;;;;;10.38;8.55;;;;;;;-145.63;100.00;61273.97;5055014;28;20225;-61
2023/12/22 01:14:19;;;;;;;9.50;7.90;;;;;;;-145.63;100.00;61273.97;5065289;28;20356;-63
2023/12/22 01:16:45;;;;;;;14.43;8.38;;;;;;;-145.63;100.00;61273.97;5064897;28;20329;-62
2023/12/22 01:19:10;;;;;;;11.68;8.88;;;;;;;-145.63;100.00;61273.97;5065023;28;20025;-63
2023/12/22 01:21:36;;;;;;;9.68;8.13;;;;;;;-145.63;100.00;61273.97;5080835;28;20032;-62
2023/12/22 01:24:02;;;;;;;9.85;8.48;;;;;;;-145.63;100.00;61273.97;5073752;28;20029;-63
2023/12/22 01:26:28;;;;;;;10.38;8.30;;;;;;;-145.63;100.00;61273.97;5058768;28;20683;-62
2023/12/22 01:28:53;;;;;;;11.63;8.07;;;;;;;-145.63;100.00;61273.97;5046405;28;20030;-63
2023/12/22 01:31:19;;;;;;;11.07;7.75;;;;;;;-145.63;100.00;61273.97;5063783;28;20209;-62
2023/12/22 01:33:45;;;;;;;10.82;8.60;;;;;;;-145.63;100.00;61273.97;5064676;28;20040;-62
2023/12/22 01:36:11;;;;;;;10.82;8.85;;;;;;;-145.63;100.00;61273.97;5057931;28;20248;-63
2023/12/22 01:38:36;;;;;;;11.48;8.10;;;;;;;-145.63;100.00;61273.97;5064832;28;20109;-63
2023/12/22 01:41:02;;;;;;;12.00;8.60;;;;;;;-145.63;100.00;61273.97;5062055;28;20029;-63
2023/12/22 01:43:28;;;;;;;11.70;9.05;;;;;;;-145.63;100.00;61273.97;5044852;28;20021;-63
2023/12/22 01:45:56;;;;;;;10.80;8.55;;;;;;;-145.63;100.00;61273.97;5062459;28;20029;-61
2023/12/22 01:48:24;;;;;;;10.27;8.10;;;;;;;-145.63;100.00;61273.97;5051057;28;20290;-60
2023/12/22 01:50:52;;;;;;;11.02;8.00;;;;;;;-145.63;100.00;61273.97;5045532;28;20033;-61
2023/12/22 01:53:20;;;;;;;11.05;8.40;;;;;;;-145.63;100.00;61273.97;5049229;28;20461;-61
2023/12/22 01:55:48;;;;;;;12.95;8.25;;;;;;;-145.63;100.00;61273.97;5064024;28;20064;-61
2023/12/22 01:58:14;;;;;;;12.70;9.07;;;;;;;-145.63;100.00;61273.97;5044585;28;20032;-61
2023/12/22 02:00:40;;;;;;;13.98;8.20;;;;;;;-145.63;100.00;61273.97;5059988;28;20033;-61
2023/12/22 02:03:06;;;;;;;14.35;8.60;;;;;;;-145.63;100.00;61273.97;5064341;28;20200;-63
2023/12/22 02:05:32;;;;;;;14.88;8.95;;;;;;;-145.63;100.00;61273.97;5058082;28;20057;-62
2023/12/22 02:07:58;;;;;;;11.55;8.20;;;;;;;-145.63;100.00;61273.97;5057685;28;20089;-62
2023/12/22 02:10:24;;;;;;;11.13;7.72;;;;;;;-145.63;100.00;61273.97;5063588;28;20025;-61
2023/12/22 02:12:50;;;;;;;11.77;8.43;;;;;;;-145.63;100.00;61273.97;5046995;28;20033;-62
2023/12/22 02:15:16;;;;;;;14.57;9.10;;;;;;;-145.63;100.00;61273.97;5056386;28;20031;-62
2023/12/22 02:17:41;;;;;;;15.63;8.85;;;;;;;-145.63;100.00;61273.97;5063708;28;20025;-62
2023/12/22 02:20:08;;;;;;;12.50;8.05;;;;;;;-145.63;100.00;61273.97;5061070;28;20080;-62
2023/12/22 02:22:33;;;;;;;11.73;8.40;;;;;;;-145.63;100.00;61273.97;5044016;28;20029;-61
2023/12/22 02:24:59;;;;;;;11.55;8.18;;;;;;;-145.63;100.00;61273.97;5062087;28;20049;-61
2023/12/22 02:27:28;;;;;;;11.43;8.38;;;;;;;-145.63;100.00;61273.97;5050292;28;20084;-62
2023/12/22 02:30:09;;;;;;;12.65;8.75;;;;;;;-145.63;100.00;61273.97;5052908;28;20031;-61
2023/12/22 02:32:40;;;;;;;9.85;7.60;;;;;;;-145.63;100.00;61273.97;5063805;28;20036;-63
2023/12/22 02:35:10;;;;;;;10.32;8.25;;;;;;;-145.63;100.00;61273.97;5060988;28;20265;-61
2023/12/22 02:37:39;;;;;;;11.00;7.78;;;;;;;-145.63;100.00;61273.97;5060764;28;20036;-61
2023/12/22 02:40:06;;;;;;;11.52;8.15;;;;;;;-145.63;100.00;61273.97;5063434;28;20064;-62
2023/12/22 02:42:34;;;;;;;12.57;8.23;;;;;;;-145.63;100.00;61273.97;5048921;28;20037;-61
2023/12/22 02:45:00;;;;;;;10.88;8.18;;;;;;;-145.63;100.00;61273.97;5053420;28;20107;-62
2023/12/22 02:47:30;;;;;;;10.85;7.53;;;;;;;-145.63;100.00;61273.97;5058135;28;20109;-61
2023/12/22 02:49:55;;;;;;;12.10;7.82;;;;;;;-145.63;100.00;61273.97;5054817;28;20024;-61
2023/12/22 02:52:21;;;;;;;11.30;7.55;;;;;;;-145.63;100.00;61273.97;5063553;28;20090;-61
2023/12/22 02:54:47;;;;;;;13.27;8.48;;;;;;;-145.63;100.00;61273.97;5046892;28;20029;-62
2023/12/22 02:57:13;;;;;;;16.17;8.63;;;;;;;-145.63;100.00;61273.97;5045167;28;20028;-61
2023/12/22 02:59:39;;;;;;;10.60;7.88;;;;;;;-145.63;100.00;61273.97;5050195;28;20052;-62
2023/12/22 03:02:05;;;;;;;14.65;8.02;;;;;;;-145.63;100.00;61273.97;5062856;28;20040;-61
2023/12/22 03:04:30;;;;;;;12.50;8.48;;;;;;;-145.63;100.00;61273.97;5063203;28;20033;-60
2023/12/22 03:06:56;;;;;;;11.18;8.80;;;;;;;-145.63;100.00;61273.97;5050604;28;20178;-62
2023/12/22 03:09:22;;;;;;;13.05;9.68;;;;;;;-145.63;100.00;61273.97;5063188;28;20039;-61
2023/12/22 03:11:48;;;;;;;12.38;9.30;;;;;;;-145.63;100.00;61273.97;5054692;28;20111;-62
2023/12/22 03:14:14;;;;;;;15.02;9.70;;;;;;;-145.63;100.00;61273.97;5046357;28;20313;-62
2023/12/22 03:16:40;;;;;;;11.00;8.82;;;;;;;-145.63;100.00;61273.97;5062781;28;20037;-63
2023/12/22 03:19:09;;;;;;;13.23;9.38;;;;;;;-145.63;100.00;61273.97;5062924;28;20025;-62
2023/12/22 03:21:35;;;;;;;13.80;10.70;;;;;;;-145.63;100.00;61273.97;5048385;28;20096;-61
2023/12/22 03:24:00;;;;;;;14.27;9.57;;;;;;;-145.63;100.00;61273.97;5052552;28;20255;-62
2023/12/22 03:26:27;;;;;;;11.13;9.05;;;;;;;-145.63;100.00;61273.97;5057676;28;20096;-65
2023/12/22 03:28:53;;;;;;;13.20;9.40;;;;;;;-145.63;100.00;61273.97;5043167;28;20305;-64
2023/12/22 03:31:19;;;;;;;14.57;10.05;;;;;;;-145.63;100.00;61273.97;5062672;28;20047;-63
2023/12/22 03:33:44;;;;;;;13.23;9.48;;;;;;;-145.63;100.00;61273.97;5062493;28;20021;-66
2023/12/22 03:36:10;;;;;;;12.65;10.07;;;;;;;-145.63;100.00;61273.97;5056511;28;20052;-65
2023/12/22 03:38:36;;;;;;;12.65;8.57;;;;;;;-145.63;100.00;61273.97;5062608;28;20387;-65
2023/12/22 03:41:01;;;;;;;12.98;9.90;;;;;;;-145.63;100.00;61273.97;5060974;28;20025;-65
2023/12/22 03:43:28;;;;;;;13.38;9.73;;;;;;;-145.63;100.00;61273.97;5042706;28;20021;-64
2023/12/22 03:45:54;;;;;;;11.93;10.50;;;;;;;-145.63;100.00;61273.97;5059096;28;20416;-64
2023/12/22 03:48:19;;;;;;;14.43;9.82;;;;;;;-145.63;100.00;61273.97;5050389;28;20025;-64
2023/12/22 03:50:45;;;;;;;12.02;9.18;;;;;;;-145.63;100.00;61273.97;5047171;28;20025;-64
2023/12/22 03:53:11;;;;;;;13.80;10.15;;;;;;;-145.63;100.00;61273.97;5059861;28;20036;-64
2023/12/22 03:55:36;;;;;;;13.32;9.50;;;;;;;-145.63;100.00;61273.97;5042808;28;20076;-63
2023/12/22 03:58:04;;;;;;;12.50;10.25;;;;;;;-145.63;100.00;61273.97;5044063;28;20033;-63
2023/12/22 04:00:30;;;;;;;14.32;10.70;;;;;;;-145.63;100.00;61273.97;5055413;28;20302;-65
2023/12/22 04:02:56;;;;;;;12.27;9.30;;;;;;;-145.63;100.00;61273.97;5062191;28;20048;-64
2023/12/22 04:05:22;;;;;;;11.40;9.13;;;;;;;-145.63;100.00;61273.97;5066139;28;20039;-64
2023/12/22 04:07:47;;;;;;;12.43;9.98;;;;;;;-145.63;100.00;61273.97;5069386;28;20025;-64
2023/12/22 04:10:17;;;;;;;14.73;10.38;;;;;;;-145.63;100.00;61273.97;5042968;28;20337;-63
2023/12/22 04:12:43;;;;;;;13.75;10.20;;;;;;;-145.63;100.00;61273.97;5057206;28;20029;-63
2023/12/22 04:15:08;;;;;;;14.40;10.45;;;;;;;-145.63;100.00;61273.97;5061764;28;20249;-65
2023/12/22 04:17:34;;;;;;;12.85;10.13;;;;;;;-145.63;100.00;61273.97;5062101;28;20031;-63
2023/12/22 04:20:00;;;;;;;13.27;10.48;;;;;;;-145.63;100.00;61273.97;5061050;28;20028;-64
2023/12/22 04:22:25;;;;;;;14.57;10.85;;;;;;;-145.63;100.00;61273.97;5042131;28;20234;-63
2023/12/22 04:24:51;;;;;;;15.85;10.57;;;;;;;-145.63;100.00;61273.97;5058101;28;20025;-63
2023/12/22 04:27:17;;;;;;;13.65;10.13;;;;;;;-145.63;100.00;61273.97;5050513;28;20025;-61
2023/12/22 04:29:42;;;;;;;13.27;10.23;;;;;;;-145.63;100.00;61273.97;5048503;28;20127;-61
2023/12/22 04:32:08;;;;;;;15.40;11.02;;;;;;;-145.63;100.00;61273.97;5061982;28;20124;-61
2023/12/22 04:34:34;;;;;;;12.55;10.73;;;;;;;-145.63;100.00;61273.97;5065650;28;20056;-62
2023/12/22 04:36:59;;;;;;;15.60;10.90;;;;;;;-145.63;100.00;61273.97;5060649;28;20037;-66
2023/12/22 04:39:25;;;;;;;14.75;10.80;;;;;;;-145.63;100.00;61273.97;5065928;28;20025;-62
2023/12/22 04:41:51;;;;;;;14.13;11.73;;;;;;;-145.63;100.00;61273.97;5073042;28;20063;-63
2023/12/22 04:44:16;;;;;;;12.30;10.45;;;;;;;-145.63;100.00;61273.97;5082657;28;20140;-65
2023/12/22 04:46:42;;;;;;;18.25;11.73;;;;;;;-145.63;100.00;61273.97;5065647;28;20025;-65
2023/12/22 04:49:08;;;;;;;14.93;10.98;;;;;;;-145.63;100.00;61273.97;5052527;28;20100;-65
2023/12/22 04:51:33;;;;;;;15.02;11.80;;;;;;;-145.63;100.00;61273.97;5065911;28;20069;-66
2023/12/22 04:53:59;;;;;;;14.60;10.85;;;;;;;-145.63;100.00;61273.97;5056769;28;20191;-65
2023/12/22 04:56:25;;;;;;;15.50;11.77;;;;;;;-145.63;100.00;61273.97;5048756;28;20032;-66
2023/12/22 04:58:50;;;;;;;15.45;11.82;;;;;;;-145.63;100.00;61273.97;5044397;28;20057;-65
2023/12/22 05:01:16;;;;;;;13.05;11.20;;;;;;;-145.63;100.00;61273.97;5064414;28;20025;-66
2023/12/22 05:03:42;;;;;;;14.60;11.88;;;;;;;-145.63;100.00;61273.97;5065113;28;20313;-65
2023/12/22 05:06:07;;;;;;;18.15;11.98;;;;;;;-145.63;100.00;61273.97;5055595;28;20033;-65
2023/12/22 05:08:34;;;;;;;13.32;11.27;;;;;;;-145.63;100.00;61273.97;5063766;28;20070;-65
2023/12/22 05:11:00;;;;;;;13.02;11.45;;;;;;;-145.63;100.00;61273.97;5064624;28;20033;-65
2023/12/22 05:13:25;;;;;;;15.23;12.32;;;;;;;-145.63;100.00;61273.97;5045081;28;20033;-65
2023/12/22 05:15:51;;;;;;;13.73;12.15;;;;;;;-145.63;100.00;61273.97;5060458;28;20343;-66
2023/12/22 05:18:17;;;;;;;15.95;12.77;;;;;;;-145.63;100.00;61273.97;5091470;28;20291;-66
2023/12/22 05:20:43;;;;;;;16.00;13.15;;;;;;;-145.63;100.00;61273.97;5078501;28;20028;-65
2023/12/22 05:23:09;;;;;;;16.85;13.15;;;;;;;-145.63;100.00;61273.97;5063226;28;20140;-64
2023/12/22 05:25:34;;;;;;;18.27;13.38;;;;;;;-145.63;100.00;61273.97;5063910;28;20020;-65
2023/12/22 05:28:00;;;;;;;19.45;13.27;;;;;;;-145.63;100.00;61273.97;5081416;28;20034;-65
2023/12/22 05:30:26;;;;;;;15.70;12.52;;;;;;;-145.63;100.00;61273.97;5072850;28;20048;-64
2023/12/22 05:32:52;;;;;;;17.60;14.25;;;;;;;-145.63;100.00;61273.97;5057571;28;20242;-64
2023/12/22 05:35:17;;;;;;;16.90;13.50;;;;;;;-145.63;100.00;61273.97;5047675;28;20046;-66
2023/12/22 05:37:43;;;;;;;17.58;14.00;;;;;;;-145.63;100.00;61273.97;5064383;28;20052;-64
2023/12/22 05:40:09;;;;;;;20.40;14.23;;;;;;;-145.63;100.00;61273.97;5064694;28;20298;-64
2023/12/22 05:42:35;;;;;;;19.67;14.05;;;;;;;-145.63;100.00;61273.97;5051368;28;20021;-65
2023/12/22 05:45:01;;;;;;;19.35;14.88;;;;;;;-145.63;100.00;61273.97;5051864;28;20231;-65
2023/12/22 05:47:26;;;;;;;18.85;15.15;;;;;;;-145.63;100.00;61273.97;5061080;28;20068;-65
2023/12/22 05:49:52;;;;;;;21.77;15.13;;;;;;;-145.63;100.00;61273.97;5045612;28;20029;-65
2023/12/22 05:52:18;;;;;;;19.98;15.40;;;;;;;-145.63;100.00;61273.97;5044603;28;20029;-65
2023/12/22 05:54:44;;;;;;;22.67;16.45;;;;;;;-145.63;100.00;61273.97;5073166;28;20088;-65
2023/12/22 05:57:09;;;;;;;21.05;15.40;;;;;;;-145.63;100.00;61273.97;5061706;28;20033;-65
2023/12/22 05:59:35;;;;;;;18.80;15.93;;;;;;;-145.63;100.00;61273.97;5049054;28;20442;-65
2023/12/22 06:02:02;;;;;;;21.33;16.50;;;;;;;-145.63;100.00;61273.97;5064098;28;20029;-65
2023/12/22 06:04:28;;;;;;;20.50;15.88;;;;;;;-145.63;100.00;61273.97;5064514;28;20040;-65
2023/12/22 06:06:54;;;;;;;24.05;16.02;;;;;;;-145.63;100.00;61273.97;5062998;28;20248;-66
2023/12/22 06:09:21;;;;;;;22.55;16.33;;;;;;;-145.63;100.00;61273.97;5063393;28;20033;-66
2023/12/22 06:11:48;;;;;;;21.70;15.57;;;;;;;-145.63;100.00;61273.97;5063819;28;20257;-66
2023/12/22 06:14:14;;;;;;;18.60;15.88;;;;;;;-145.63;100.00;61273.97;5064016;28;20025;-64
2023/12/22 06:16:40;;;;;;;20.33;16.08;;;;;;;-145.63;100.00;61273.97;5063866;28;20097;-67
2023/12/22 06:19:06;;;;;;;21.30;15.57;;;;;;;-145.63;100.00;61273.97;5063385;28;20254;-66
2023/12/22 06:21:32;;;;;;;21.42;17.25;;;;;;;-145.63;100.00;61273.97;5063600;28;20037;-66
2023/12/22 06:23:58;;;;;;;19.95;15.80;;;;;;;-145.63;100.00;61273.97;5062638;28;20040;-66
2023/12/22 06:26:23;;;;;;;18.15;14.95;;;;;;;-145.63;100.00;61273.97;5062274;28;20056;-66
2023/12/22 06:28:49;;;;;;;18.70;15.00;;;;;;;-145.63;100.00;61273.97;5064147;28;20324;-65
2023/12/22 06:31:20;;;;;;;21.13;16.10;;;;;;;-145.63;100.00;61273.97;5064024;28;20029;-65
2023/12/22 06:33:50;;;;;;;18.98;15.43;;;;;;;-145.63;100.00;61273.97;5063618;28;20029;-65
2023/12/22 06:36:23;;;;;;;18.80;14.52;;;;;;;-145.63;100.00;61273.97;5060163;28;20045;-65
2023/12/22 06:38:53;;;;;;;17.60;14.07;;;;;;;-145.63;100.00;61273.97;5063625;28;20033;-65
2023/12/22 06:41:23;;;;;;;18.05;14.25;;;;;;;-145.63;100.00;61273.97;5064484;28;20036;-65
2023/12/22 06:43:50;;;;;;;16.52;13.57;;;;;;;-145.63;100.00;61273.97;5083192;28;20055;-65
2023/12/22 06:46:21;;;;;;;19.13;14.95;;;;;;;-145.63;100.00;61273.97;5065169;28;20028;-64
2023/12/22 06:48:48;;;;;;;16.30;13.27;;;;;;;-145.63;100.00;61273.97;5054625;28;20205;-65
2023/12/22 06:51:25;;;;;;;16.58;12.85;;;;;;;-145.63;100.00;61273.97;5063364;28;20096;-66
2023/12/22 06:53:52;;;;;;;16.30;13.77;;;;;;;-145.63;100.00;61273.97;5062848;28;20290;-65
2023/12/22 06:56:23;;;;;;;17.25;13.00;;;;;;;-145.63;100.00;61273.97;5063163;28;20082;-66
2023/12/22 06:58:49;;;;;;;15.75;12.88;;;;;;;-145.63;100.00;61273.97;5063144;28;20024;-66
2023/12/22 07:01:21;;;;;;;14.18;11.90;;;;;;;-145.63;100.00;61273.97;5050428;28;20294;-66
2023/12/22 07:03:48;;;;;;;17.15;13.57;;;;;;;-145.63;100.00;61273.97;5059110;28;20032;-65
2023/12/22 07:06:18;;;;;;;16.60;12.95;;;;;;;-145.63;100.00;61273.97;5061385;28;20079;-66
2023/12/22 07:08:56;;;;;;;17.23;12.82;;;;;;;-145.63;100.00;61273.97;5059276;28;20055;-65
2023/12/22 07:11:22;;;;;;;16.05;12.50;;;;;;;-145.63;100.00;61273.97;5063096;28;20039;-65
2023/12/22 07:13:47;;;;;;;14.75;12.63;;;;;;;-145.63;100.00;61273.97;5062693;28;20088;-64
2023/12/22 07:16:14;;;;;;;18.17;12.57;;;;;;;-145.63;100.00;61273.97;5050750;28;20048;-65
2023/12/22 07:18:40;;;;;;;15.68;12.57;;;;;;;-145.63;100.00;61273.97;5062694;28;20052;-64
2023/12/22 07:21:06;;;;;;;15.48;11.98;;;;;;;-145.63;100.00;61273.97;5059605;28;20036;-64
2023/12/22 07:23:31;;;;;;;14.68;12.70;;;;;;;-145.63;100.00;61273.97;5062728;28;20178;-65
2023/12/22 07:25:58;;;;;;;16.65;12.57;;;;;;;-145.63;100.00;61273.97;5062571;28;20021;-64
2023/12/22 07:28:23;;;;;;;15.73;12.35;;;;;;;-145.63;100.00;61273.97;5043642;28;20048;-65
2023/12/22 07:30:49;;;;;;;14.52;11.82;;;;;;;-145.63;100.00;61273.97;5056788;28;20029;-65
2023/12/22 07:33:15;;;;;;;17.50;12.52;;;;;;;-145.63;100.00;61273.97;5062767;28;20036;-66
2023/12/22 07:35:41;;;;;;;16.98;12.50;;;;;;;-145.63;100.00;61273.97;5061765;28;20082;-64
2023/12/22 07:38:07;;;;;;;16.27;12.82;;;;;;;-145.63;100.00;61273.97;5061208;28;20045;-66
2023/12/22 07:40:32;;;;;;;15.20;12.32;;;;;;;-145.63;100.00;61273.97;5043354;28;20026;-66
2023/12/22 07:42:58;;;;;;;18.40;13.07;;;;;;;-145.63;100.00;61273.97;5060218;28;20197;-65
2023/12/22 07:45:24;;;;;;;17.10;12.75;;;;;;;-145.63;100.00;61273.97;5058782;28;20033;-65
2023/12/22 07:47:49;;;;;;;14.68;11.98;;;;;;;-145.63;100.00;61273.97;5060869;28;20364;-65
2023/12/22 07:50:15;;;;;;;13.75;11.50;;;;;;;-145.63;100.00;61273.97;5058470;28;20040;-65
2023/12/22 07:52:41;;;;;;;17.85;12.43;;;;;;;-145.63;100.00;61273.97;5055960;28;20028;-65
2023/12/22 07:55:09;;;;;;;12.95;11.43;;;;;;;-145.63;100.00;61273.97;5059678;28;20028;-64
2023/12/22 07:57:34;;;;;;;15.00;11.50;;;;;;;-145.63;100.00;61273.97;5060198;28;20023;-65
2023/12/22 08:00:00;;;;;;;15.75;12.75;;;;;;;-145.63;100.00;61273.97;5061990;28;20240;-65
2023/12/22 08:02:26;;;;;;;16.25;13.00;;;;;;;-145.63;100.00;61273.97;5059907;28;20210;-63
2023/12/22 08:04:52;;;;;;;15.38;12.15;;;;;;;-145.63;100.00;61273.97;5061436;28;20020;-63
2023/12/22 08:07:17;;;;;;;14.68;12.18;;;;;;;-145.63;100.00;61273.97;5065975;28;20033;-63
2023/12/22 08:09:43;;;;;;;17.55;13.13;;;;;;;-145.63;100.00;61273.97;5061862;28;20088;-65
2023/12/22 08:12:09;;;;;;;16.52;13.55;;;;;;;-145.63;100.00;61273.97;5062089;28;20029;-64
2023/12/22 08:14:34;;;;;;;14.65;12.55;;;;;;;-145.63;100.00;61273.97;5061739;28;20051;-65
2023/12/22 08:17:00;;;;;;;25.92;18.65;;;;;;;-145.63;100.00;61273.97;5061626;28;20083;-64
2023/12/22 08:19:26;;;;;;;16.02;13.50;;;;;;;-145.63;100.00;61273.97;5059449;28;20017;-64
2023/12/22 08:21:55;;;;;;;15.75;12.35;;;;;;;-145.63;100.00;61273.97;5058467;28;20221;-65
2023/12/22 08:24:21;;;;;;;14.45;11.95;;;;;;;-145.63;100.00;61273.97;5059306;28;20032;-65
2023/12/22 08:26:47;;;;;;;16.23;12.25;;;;;;;-145.63;100.00;61273.97;5059154;28;20032;-65
2023/12/22 08:29:13;;;;;;;15.35;12.02;;;;;;;-145.63;100.00;61273.97;5059755;28;20028;-65
2023/12/22 08:31:39;;;;;;;17.13;12.48;;;;;;;-145.63;100.00;61273.97;5060026;28;20356;-64
2023/12/22 08:34:05;;;;;;;12.55;10.40;;;;;;;-145.63;100.00;61273.97;5059115;28;20025;-65
2023/12/22 08:36:31;;;;;;;15.65;12.13;;;;;;;-145.63;100.00;61273.97;5059242;28;20051;-64
2023/12/22 08:38:57;;;;;;;17.80;13.48;;;;;;;-145.63;100.00;61273.97;5060539;28;20040;-66
2023/12/22 08:41:24;;;;;;;16.77;13.85;;;;;;;-145.63;100.00;61273.97;5058205;28;20068;-66
2023/12/22 08:43:50;;;;;;;19.38;15.05;;;;;;;-145.63;100.00;61273.97;5061205;28;20213;-64
2023/12/22 08:46:15;;;;;;;18.95;13.90;;;;;;;-145.63;100.00;61273.97;5061497;28;20048;-66
2023/12/22 08:48:41;;;;;;;20.58;15.27;;;;;;;-145.63;100.00;61273.97;5050285;28;20036;-64
2023/12/22 08:51:06;;;;;;;21.38;16.55;;;;;;;-145.63;100.00;61273.97;5061854;28;20040;-64
2023/12/22 08:53:36;;;;;;;23.70;15.60;;;;;;;-145.63;100.00;61273.97;5059096;28;20096;-65
2023/12/22 08:56:03;;;;;;;21.08;17.38;;;;;;;-145.63;100.00;61273.97;5044152;28;20030;-65
2023/12/22 08:58:29;;;;;;;23.75;17.23;;;;;;;-145.63;100.00;61273.97;5058325;28;20067;-65
2023/12/22 09:00:55;;;;;;;22.75;16.55;;;;;;;-145.63;100.00;61273.97;5061047;28;20037;-65
2023/12/22 09:03:21;;;;;;;24.85;17.98;;;;;;;-145.63;100.00;61273.97;5059502;28;20039;-65
2023/12/22 09:05:47;;;;;;;23.75;17.83;;;;;;;-145.63;100.00;61273.97;5060994;28;20028;-66
2023/12/22 09:08:13;;;;;;;27.55;19.73;;;;;;;-145.63;100.00;61273.97;5061745;28;20032;-64
2023/12/22 09:10:38;;;;;;;22.58;18.38;;;;;;;-145.63;100.00;61273.97;5052477;28;20040;-66
2023/12/22 09:13:04;;;;;;;24.70;18.58;;;;;;;-145.63;100.00;61273.97;5060752;28;20032;-64
2023/12/22 09:15:30;;;;;;;21.27;17.73;;;;;;;-145.63;100.00;61273.97;5061165;28;20013;-64
2023/12/22 09:17:56;;;;;;;20.45;16.67;;;;;;;-145.63;100.00;61273.97;5055351;28;20044;-65
2023/12/22 09:20:22;;;;;;;22.65;17.35;;;;;;;-145.63;100.00;61273.97;5045337;28;20438;-65
2023/12/22 09:22:48;;;;;;;20.85;16.60;;;;;;;-145.63;100.00;61273.97;5064757;28;20052;-65
2023/12/22 09:25:14;;;;;;;21.63;16.70;;;;;;;-145.63;100.00;61273.97;5065153;28;20034;-65
2023/12/22 09:27:39;;;;;;;20.80;16.77;;;;;;;-145.63;100.00;61273.97;5065002;28;20481;-66
2023/12/22 09:30:08;;;;;;;20.60;16.67;;;;;;;-145.63;100.00;61273.97;5064513;28;20075;-65
2023/12/22 09:32:34;;;;;;;17.50;14.85;;;;;;;-145.63;100.00;61273.97;5061925;28;20024;-66
2023/12/22 09:35:01;;;;;;;18.92;14.40;;;;;;;-145.63;100.00;61273.97;5044531;28;20061;-64
2023/12/22 09:37:26;;;;;;;16.67;14.15;;;;;;;-145.63;100.00;61273.97;5062769;28;20041;-64
2023/12/22 09:39:52;;;;;;;16.67;14.55;;;;;;;-145.63;100.00;61273.97;5050734;28;20222;-64
2023/12/22 09:42:20;;;;;;;17.05;13.18;;;;;;;-145.63;100.00;61273.97;5059128;28;20040;-64
2023/12/22 09:44:49;;;;;;;15.60;13.32;;;;;;;-145.63;100.00;61273.97;5060115;28;20032;-64
2023/12/22 09:47:17;;;;;;;17.02;13.25;;;;;;;-145.63;100.00;61273.97;5044703;28;20049;-65
2023/12/22 09:49:44;;;;;;;15.43;13.23;;;;;;;-145.63;100.00;61273.97;5045407;28;20017;-65
2023/12/22 09:52:11;;;;;;;14.90;12.43;;;;;;;-145.63;100.00;61273.97;5044349;28;20036;-64
2023/12/22 09:54:38;;;;;;;15.20;12.15;;;;;;;-145.63;100.00;61273.97;5054341;28;20032;-64
2023/12/22 09:57:05;;;;;;;16.23;12.73;;;;;;;-145.63;100.00;61273.97;5064258;28;20092;-65
2023/12/22 09:59:33;;;;;;;14.50;12.43;;;;;;;-145.63;100.00;61273.97;5066428;28;20298;-64
2023/12/22 10:02:02;;;;;;;15.60;12.45;;;;;;;-145.63;100.00;61273.97;5071826;28;20297;-64
2023/12/22 10:04:28;;;;;;;13.30;11.65;;;;;;;-145.63;100.00;61273.97;5063685;28;20035;-64
2023/12/22 10:07:00;;;;;;;13.70;11.07;;;;;;;-145.63;100.00;61273.97;5063809;28;20028;-65
2023/12/22 10:09:26;;;;;;;12.82;11.35;;;;;;;-145.63;100.00;61273.97;5063223;28;20095;-65
2023/12/22 10:11:55;;;;;;;13.75;11.70;;;;;;;-145.63;100.00;61273.97;5059194;28;20312;-64
2023/12/22 10:14:22;;;;;;;14.35;11.40;;;;;;;-145.63;100.00;61273.97;5063708;28;20278;-63
2023/12/22 10:16:52;;;;;;;13.77;11.48;;;;;;;-145.63;100.00;61273.97;5063521;28;20024;-64
2023/12/22 10:19:20;;;;;;;14.27;11.10;;;;;;;-145.63;100.00;61273.97;5061119;28;20025;-64
2023/12/22 10:21:45;;;;;;;14.10;11.38;;;;;;;-145.63;100.00;61273.97;5063151;28;20052;-63
2023/12/22 10:24:40;;;;;;;13.32;10.98;;;;;;;-145.63;100.00;61273.97;5062075;28;20052;-64
2023/12/22 10:27:05;;;;;;;16.30;12.23;;;;;;;-145.63;100.00;61273.97;5059655;28;20016;-63
2023/12/22 10:29:32;;;;;;;11.10;9.93;;;;;;;-145.63;100.00;61273.97;5061879;28;20078;-64
2023/12/22 10:32:01;;;;;;;13.50;10.73;;;;;;;-145.63;100.00;61273.97;5059485;28;20025;-65
2023/12/22 10:34:27;;;;;;;12.68;10.40;;;;;;;-145.63;100.00;61273.97;5062041;28;20025;-64
2023/12/22 10:36:52;;;;;;;14.45;11.18;;;;;;;-145.63;100.00;61273.97;5059417;28;20032;-63
2023/12/22 10:39:18;;;;;;;11.73;10.45;;;;;;;-145.63;100.00;61273.97;5061696;28;20028;-64
2023/12/22 10:41:44;;;;;;;12.35;10.05;;;;;;;-145.63;100.00;61273.97;5061787;28;20037;-63
2023/12/22 10:44:10;;;;;;;12.88;10.40;;;;;;;-145.63;100.00;61273.97;5060132;28;20107;-63
2023/12/22 10:46:37;;;;;;;14.57;10.38;;;;;;;-145.63;100.00;61273.97;5060961;28;20388;-64
2023/12/22 10:49:05;;;;;;;14.85;10.07;;;;;;;-145.63;100.00;61273.97;5059699;28;20025;-65
2023/12/22 10:51:32;;;;;;;13.93;10.90;;;;;;;-145.63;100.00;61273.97;5043299;28;20040;-64
2023/12/22 10:53:58;;;;;;;14.88;10.70;;;;;;;-145.63;100.00;61273.97;5050984;28;20032;-63